Cowan, Indiana
Current Conditions -  °F | °C
As of 7:19 AM on Monday 24 Nov 2014 (Local Time) from KMIE Reporting Station
Thunderstorm Thunderstorm  
Wind Chill: 14°   Ceiling: 6000
Heat Index: 14°   Visibility: 7mi
Dew Point: 12°   Wind: 25mph
Humidity: 87%   Direction: 210°SSW
Pressure: 29.17"   Gusts: 35mph
Location:  40.1286°N, 85.3767°W
Report Text: KMIE 241219Z 21022G30KT 7SM VCTS -RA FEW016 BKN060 OVC110 14/12 A2917 RMK AO2 PK WND 20030/1219 LTG DSNT E-SW RAB06 P0001 T01390117
Loading
Personal Weather Stations






























Interactive Weather Map New forecast layout! Learn more

10-Day Weather Forecast

Advertisements
Track Severe Weather on mobile